Time;durP1;ratioP1;P1;durP2;ratioP2;P2;SDS_P1;SDS_P2;PMS_P1;PMS_P2;Temp;Humidity;BMP_temperature;BMP_pressure;BME280_temperature;BME280_humidity;BME280_pressure;Samples;Min_cycle;Max_cycle;Signal;HPM_P1;HPM_P2
2024/03/06 00:02:19;;;;;;;50.60;23.15;;;;;;;11.82;100.00;99641.78;5097677;28;20040;-62
2024/03/06 00:04:44;;;;;;;47.35;22.10;;;;;;;11.81;100.00;99640.97;5095800;28;20356;-64
2024/03/06 00:07:10;;;;;;;41.30;21.77;;;;;;;11.80;100.00;99646.44;5096758;28;20077;-62
2024/03/06 00:09:36;;;;;;;51.83;22.50;;;;;;;11.70;100.00;99646.63;5096237;28;20186;-61
2024/03/06 00:12:02;;;;;;;44.00;20.63;;;;;;;11.71;100.00;99632.34;5097004;28;20080;-62
2024/03/06 00:14:28;;;;;;;48.45;21.65;;;;;;;11.68;100.00;99626.56;5096148;28;20048;-62
2024/03/06 00:16:55;;;;;;;42.75;20.45;;;;;;;11.75;100.00;99638.16;5096417;28;20032;-62
2024/03/06 00:19:21;;;;;;;50.80;20.92;;;;;;;11.74;100.00;99633.84;5096621;28;20226;-63
2024/03/06 00:21:47;;;;;;;42.40;21.83;;;;;;;11.68;100.00;99635.34;5096500;28;20038;-63
2024/03/06 00:24:13;;;;;;;50.97;26.30;;;;;;;11.64;100.00;99642.00;5095302;28;20035;-62
2024/03/06 00:26:41;;;;;;;49.30;24.05;;;;;;;11.58;100.00;99649.81;5095805;28;20028;-62
2024/03/06 00:29:06;;;;;;;53.53;22.73;;;;;;;11.58;100.00;99647.16;5096864;28;20044;-62
2024/03/06 00:31:32;;;;;;;51.45;22.90;;;;;;;11.50;100.00;99654.16;5094040;28;20044;-62
2024/03/06 00:33:57;;;;;;;50.92;23.40;;;;;;;11.43;100.00;99654.97;5096389;28;20419;-62
2024/03/06 00:36:23;;;;;;;44.58;22.77;;;;;;;11.48;100.00;99648.19;5094996;28;20028;-63
2024/03/06 00:38:48;;;;;;;53.78;24.20;;;;;;;11.45;100.00;99645.88;5096504;28;20039;-62
2024/03/06 00:41:14;;;;;;;51.22;26.08;;;;;;;11.58;100.00;99648.00;5093455;28;20077;-62
2024/03/06 00:43:39;;;;;;;51.28;24.30;;;;;;;11.62;100.00;99649.31;5096741;28;20032;-62
2024/03/06 00:46:05;;;;;;;48.60;24.45;;;;;;;11.68;100.00;99650.44;5095933;28;20194;-62
2024/03/06 00:48:30;;;;;;;58.72;25.77;;;;;;;11.69;100.00;99655.56;5096016;28;20044;-62
2024/03/06 00:50:56;;;;;;;46.90;23.27;;;;;;;11.73;100.00;99653.41;5095450;28;20039;-63
2024/03/06 00:53:21;;;;;;;52.75;24.23;;;;;;;11.77;100.00;99660.88;5095396;28;20036;-61
2024/03/06 00:55:47;;;;;;;41.95;21.85;;;;;;;11.74;100.00;99665.66;5095100;28;20036;-62
2024/03/06 00:58:13;;;;;;;52.58;23.70;;;;;;;11.73;100.00;99662.19;5094082;28;20036;-61
2024/03/06 01:00:39;;;;;;;50.80;25.23;;;;;;;11.73;100.00;99670.16;5095303;28;20047;-61
2024/03/06 01:03:04;;;;;;;46.25;24.45;;;;;;;11.75;100.00;99662.03;5095657;28;20619;-62
2024/03/06 01:05:30;;;;;;;53.95;25.92;;;;;;;11.76;100.00;99667.16;5096691;28;20032;-62
2024/03/06 01:07:56;;;;;;;47.80;23.63;;;;;;;11.76;100.00;99667.16;5094685;28;20058;-61
2024/03/06 01:10:22;;;;;;;52.33;24.42;;;;;;;11.77;100.00;99663.53;5096024;28;20070;-64
2024/03/06 01:12:48;;;;;;;52.03;24.45;;;;;;;11.74;100.00;99661.19;5093387;28;20254;-64
2024/03/06 01:15:14;;;;;;;44.38;21.42;;;;;;;11.73;100.00;99667.50;5095669;28;20124;-62
2024/03/06 01:17:39;;;;;;;47.78;22.88;;;;;;;11.76;100.00;99661.84;5094067;28;20035;-62
2024/03/06 01:20:08;;;;;;;41.13;21.02;;;;;;;11.75;100.00;99670.81;5092846;28;20099;-61
2024/03/06 01:22:34;;;;;;;33.05;17.98;;;;;;;11.63;100.00;99666.88;5094068;28;20040;-63
2024/03/06 01:25:00;;;;;;;37.08;17.70;;;;;;;11.51;100.00;99671.72;5093582;28;20028;-64
2024/03/06 01:27:27;;;;;;;37.63;19.35;;;;;;;11.53;100.00;99671.53;5093468;28;20337;-62
2024/03/06 01:29:52;;;;;;;44.38;20.85;;;;;;;11.48;100.00;99668.56;5093260;28;20265;-61
2024/03/06 01:32:18;;;;;;;42.47;19.27;;;;;;;11.48;100.00;99679.19;5093923;28;20039;-62
2024/03/06 01:34:43;;;;;;;44.30;21.10;;;;;;;11.36;100.00;99689.28;5094528;28;20036;-62
2024/03/06 01:37:09;;;;;;;46.10;21.42;;;;;;;11.36;100.00;99675.19;5093165;28;20222;-61
2024/03/06 01:39:35;;;;;;;48.90;22.15;;;;;;;11.41;100.00;99673.69;5096094;28;20036;-61
2024/03/06 01:42:02;;;;;;;50.28;23.35;;;;;;;11.45;100.00;99677.69;5092379;28;20054;-62
2024/03/06 01:44:27;;;;;;;42.70;20.15;;;;;;;11.49;100.00;99678.19;5095770;28;20044;-64
2024/03/06 01:46:54;;;;;;;44.58;22.20;;;;;;;11.52;100.00;99685.78;5094367;28;20027;-62
2024/03/06 01:49:21;;;;;;;45.80;22.30;;;;;;;11.54;100.00;99682.97;5096315;28;20488;-62
2024/03/06 01:51:50;;;;;;;43.78;21.33;;;;;;;11.57;100.00;99679.97;5099140;28;20032;-62
2024/03/06 01:54:16;;;;;;;42.38;20.63;;;;;;;11.60;100.00;99677.00;5096953;28;20071;-64
2024/03/06 01:56:45;;;;;;;43.72;21.10;;;;;;;11.60;100.00;99677.81;5100103;28;20035;-64
2024/03/06 01:59:12;;;;;;;51.33;23.17;;;;;;;11.58;100.00;99674.50;5096501;28;20035;-62
2024/03/06 02:01:39;;;;;;;47.17;23.45;;;;;;;11.57;100.00;99683.47;5099399;28;20034;-62
2024/03/06 02:04:06;;;;;;;52.85;24.65;;;;;;;11.62;100.00;99688.25;5095874;28;20423;-62
2024/03/06 02:06:32;;;;;;;48.80;23.45;;;;;;;11.62;100.00;99678.47;5098642;28;20056;-62
2024/03/06 02:08:57;;;;;;;58.65;26.30;;;;;;;11.58;100.00;99676.34;5097203;28;20283;-62
2024/03/06 02:11:24;;;;;;;52.35;25.15;;;;;;;11.55;100.00;99676.66;5098654;28;20123;-62
2024/03/06 02:13:50;;;;;;;66.85;29.73;;;;;;;11.36;100.00;99685.78;5097032;28;20032;-63
2024/03/06 02:16:16;;;;;;;65.90;29.85;;;;;;;11.33;100.00;99681.66;5098272;28;20206;-63
2024/03/06 02:18:54;;;;;;;55.60;27.45;;;;;;;11.46;100.00;99681.16;5096270;28;20036;-62
2024/03/06 02:21:21;;;;;;;59.55;28.50;;;;;;;11.50;100.00;99678.00;5098483;28;20095;-62
2024/03/06 02:23:47;;;;;;;70.40;30.08;;;;;;;11.41;100.00;99680.81;5097536;28;20035;-62
2024/03/06 02:26:12;;;;;;;68.90;29.85;;;;;;;11.46;100.00;99682.00;5098382;28;20351;-63
2024/03/06 02:28:38;;;;;;;62.03;27.52;;;;;;;11.53;100.00;99671.53;5096297;28;20089;-62
2024/03/06 02:31:06;;;;;;;59.72;26.67;;;;;;;11.55;100.00;99674.84;5098092;28;20475;-62
2024/03/06 02:33:34;;;;;;;58.13;26.10;;;;;;;11.59;100.00;99684.13;5097512;28;20051;-62
2024/03/06 02:35:59;;;;;;;52.20;25.65;;;;;;;11.56;100.00;99679.16;5095691;28;20476;-61
2024/03/06 02:38:25;;;;;;;54.10;25.33;;;;;;;11.47;100.00;99681.00;5098738;28;20303;-62
2024/03/06 02:40:50;;;;;;;57.85;25.33;;;;;;;11.42;100.00;99679.81;5095630;28;20047;-62
2024/03/06 02:43:16;;;;;;;46.33;23.20;;;;;;;11.46;100.00;99686.47;5098792;28;20040;-64
2024/03/06 02:45:41;;;;;;;48.92;23.27;;;;;;;11.48;100.00;99684.47;5096036;28;20044;-63
2024/03/06 02:48:07;;;;;;;51.63;25.35;;;;;;;11.51;100.00;99689.44;5098495;28;20028;-62
2024/03/06 02:50:32;;;;;;;58.20;27.08;;;;;;;11.52;100.00;99691.94;5095352;28;20360;-62
2024/03/06 02:52:58;;;;;;;68.72;34.55;;;;;;;11.52;100.00;99683.16;5098216;28;20040;-61
2024/03/06 02:55:24;;;;;;;63.42;30.35;;;;;;;11.49;100.00;99686.13;5095745;28;20039;-63
2024/03/06 02:57:50;;;;;;;59.03;25.83;;;;;;;11.49;100.00;99694.91;5098478;28;20362;-62
2024/03/06 03:00:16;;;;;;;58.42;25.05;;;;;;;11.48;100.00;99693.25;5095364;28;20040;-62
2024/03/06 03:02:42;;;;;;;54.15;26.02;;;;;;;11.41;100.00;99692.25;5098467;28;20035;-62
2024/03/06 03:05:08;;;;;;;50.55;24.02;;;;;;;11.42;100.00;99701.84;5095558;28;20032;-61
2024/03/06 03:07:34;;;;;;;55.22;25.35;;;;;;;11.41;100.00;99697.56;5097815;28;20361;-61
2024/03/06 03:09:59;;;;;;;53.92;26.35;;;;;;;11.47;100.00;99704.84;5097886;28;20036;-62
2024/03/06 03:12:24;;;;;;;47.47;23.88;;;;;;;11.48;100.00;99693.25;5095200;28;20031;-62
2024/03/06 03:14:50;;;;;;;52.92;23.67;;;;;;;11.58;100.00;99708.16;5096413;28;20040;-64
2024/03/06 03:17:19;;;;;;;47.72;23.90;;;;;;;11.62;100.00;99702.34;5095944;28;20020;-61
2024/03/06 03:19:44;;;;;;;64.55;31.73;;;;;;;11.63;100.00;99701.34;5097802;28;20135;-61
2024/03/06 03:22:10;;;;;;;124.38;54.85;;;;;;;11.58;100.00;99700.19;5095252;28;20031;-62
2024/03/06 03:24:36;;;;;;;104.53;46.55;;;;;;;11.59;100.00;99707.16;5097942;28;20057;-61
2024/03/06 03:27:02;;;;;;;102.25;44.30;;;;;;;11.57;100.00;99698.53;5094381;28;20067;-63
2024/03/06 03:29:29;;;;;;;83.07;39.08;;;;;;;11.57;100.00;99694.06;5097035;28;20098;-62
2024/03/06 03:31:55;;;;;;;67.85;31.70;;;;;;;11.61;100.00;99705.16;5095290;28;20055;-61
2024/03/06 03:34:20;;;;;;;56.83;27.92;;;;;;;11.59;100.00;99705.34;5097618;28;20055;-61
2024/03/06 03:36:47;;;;;;;55.63;25.63;;;;;;;11.57;100.00;99702.03;5095943;28;20064;-61
2024/03/06 03:39:16;;;;;;;45.80;22.52;;;;;;;11.52;100.00;99707.00;5096879;28;20329;-61
2024/03/06 03:41:48;;;;;;;45.75;22.42;;;;;;;11.55;100.00;99708.50;5095827;28;20159;-62
2024/03/06 03:44:14;;;;;;;42.88;22.17;;;;;;;11.57;100.00;99717.94;5095506;28;20051;-64
2024/03/06 03:46:40;;;;;;;39.88;20.42;;;;;;;11.49;100.00;99712.66;5096269;28;20106;-63
2024/03/06 03:49:06;;;;;;;43.78;21.42;;;;;;;11.50;100.00;99706.34;5095027;28;20059;-61
2024/03/06 03:51:31;;;;;;;44.47;22.33;;;;;;;11.51;100.00;99715.97;5096748;28;20101;-62
2024/03/06 03:53:57;;;;;;;46.10;24.92;;;;;;;11.43;100.00;99715.94;5095186;28;20028;-61
2024/03/06 03:56:22;;;;;;;47.25;23.02;;;;;;;11.28;100.00;99721.09;5096721;28;20043;-62
2024/03/06 03:58:47;;;;;;;45.28;22.63;;;;;;;11.24;100.00;99716.28;5093451;28;20062;-63
2024/03/06 04:01:13;;;;;;;41.35;20.77;;;;;;;11.12;100.00;99715.81;5096292;28;20059;-61
2024/03/06 04:03:40;;;;;;;45.10;21.90;;;;;;;10.93;100.00;99710.84;5093086;28;20321;-61
2024/03/06 04:06:06;;;;;;;46.00;22.20;;;;;;;10.90;100.00;99727.06;5096919;28;20024;-61
2024/03/06 04:08:31;;;;;;;44.90;21.15;;;;;;;10.77;100.00;99736.31;5094552;28;20048;-64
2024/03/06 04:10:57;;;;;;;37.20;18.33;;;;;;;10.83;100.00;99740.13;5096348;28;20032;-63
2024/03/06 04:13:22;;;;;;;35.78;19.50;;;;;;;10.83;100.00;99740.13;5094222;28;20344;-63
2024/03/06 04:15:48;;;;;;;36.97;19.75;;;;;;;10.87;100.00;99734.34;5097665;28;20058;-64
2024/03/06 04:18:14;;;;;;;39.15;20.10;;;;;;;10.87;100.00;99733.50;5095632;28;20044;-64
2024/03/06 04:20:39;;;;;;;34.47;18.80;;;;;;;10.80;100.00;99727.22;5094481;28;20332;-63
2024/03/06 04:23:05;;;;;;;36.67;19.80;;;;;;;10.84;100.00;99739.13;5097244;28;20043;-62
2024/03/06 04:25:30;;;;;;;37.35;19.70;;;;;;;10.85;100.00;99736.31;5095312;28;20333;-63
2024/03/06 04:27:56;;;;;;;41.05;22.40;;;;;;;10.86;100.00;99743.28;5096510;28;20330;-65
2024/03/06 04:30:21;;;;;;;37.67;20.40;;;;;;;10.71;100.00;99736.97;5094480;28;20078;-64
2024/03/06 04:32:47;;;;;;;38.47;21.17;;;;;;;10.83;100.00;99748.06;5097117;28;20040;-63
2024/03/06 04:35:12;;;;;;;38.03;19.35;;;;;;;10.78;100.00;99743.28;5095007;28;20040;-62
2024/03/06 04:37:39;;;;;;;34.88;18.98;;;;;;;10.79;100.00;99749.41;5095903;28;20333;-62
2024/03/06 04:40:07;;;;;;;38.55;19.77;;;;;;;10.85;100.00;99743.44;5094170;28;20032;-62
2024/03/06 04:42:35;;;;;;;40.67;21.15;;;;;;;10.68;100.00;99752.34;5096625;28;20032;-63
2024/03/06 04:45:03;;;;;;;42.38;21.85;;;;;;;10.55;100.00;99750.19;5094408;28;20058;-63
2024/03/06 04:47:28;;;;;;;38.65;22.27;;;;;;;10.47;100.00;99750.97;5097389;28;20043;-62
2024/03/06 04:49:54;;;;;;;40.38;22.45;;;;;;;10.65;100.00;99750.88;5095091;28;20043;-65
2024/03/06 04:52:19;;;;;;;51.20;24.58;;;;;;;10.65;100.00;99752.69;5095782;28;20034;-63
2024/03/06 04:54:45;;;;;;;44.33;23.95;;;;;;;10.65;100.00;99755.34;5094992;28;20031;-61
2024/03/06 04:57:10;;;;;;;43.83;20.88;;;;;;;10.50;100.00;99758.59;5095846;28;20338;-61
2024/03/06 04:59:36;;;;;;;43.13;19.15;;;;;;;10.48;100.00;99757.94;5094537;28;20043;-64
2024/03/06 05:02:03;;;;;;;46.15;21.55;;;;;;;10.36;100.00;99767.13;5094759;28;20032;-63
2024/03/06 05:04:29;;;;;;;34.42;20.10;;;;;;;10.37;100.00;99771.44;5096667;28;20044;-62
2024/03/06 05:06:55;;;;;;;41.13;20.30;;;;;;;10.33;100.00;99771.91;5094831;28;20392;-62
2024/03/06 05:09:21;;;;;;;36.65;17.80;;;;;;;10.42;100.00;99768.34;5095838;28;20070;-63
2024/03/06 05:11:50;;;;;;;60.00;19.50;;;;;;;10.51;100.00;99767.38;5093941;28;20032;-64
2024/03/06 05:14:15;;;;;;;48.60;18.67;;;;;;;10.48;100.00;99776.47;5095290;28;20036;-64
2024/03/06 05:16:41;;;;;;;35.13;17.90;;;;;;;10.50;100.00;99782.44;5096524;28;20039;-63
2024/03/06 05:19:06;;;;;;;28.13;16.20;;;;;;;10.36;100.00;99790.13;5095846;28;20272;-63
2024/03/06 05:21:33;;;;;;;39.72;18.65;;;;;;;10.15;100.00;99779.91;5095891;28;20048;-63
2024/03/06 05:23:58;;;;;;;29.33;17.60;;;;;;;10.29;100.00;99782.00;5095998;28;20135;-62
2024/03/06 05:26:24;;;;;;;36.25;18.83;;;;;;;10.29;100.00;99791.75;5101369;28;20028;-62
2024/03/06 05:28:49;;;;;;;38.10;17.38;;;;;;;10.25;100.00;99788.59;5099467;28;20027;-62
2024/03/06 05:31:19;;;;;;;26.77;15.07;;;;;;;10.27;100.00;99788.44;5100446;28;20036;-65
2024/03/06 05:33:48;;;;;;;37.13;16.08;;;;;;;10.23;100.00;99791.41;5099123;28;20213;-64
2024/03/06 05:36:14;;;;;;;42.92;17.85;;;;;;;10.24;100.00;99794.88;5100324;28;20035;-63
2024/03/06 05:38:40;;;;;;;37.70;17.55;;;;;;;10.27;100.00;99802.50;5099238;28;20142;-62
2024/03/06 05:41:05;;;;;;;37.10;15.68;;;;;;;10.33;100.00;99796.56;5100831;28;20035;-61
2024/03/06 05:43:31;;;;;;;28.20;15.82;;;;;;;10.36;100.00;99811.28;5099284;28;20050;-64
2024/03/06 05:45:56;;;;;;;31.95;16.80;;;;;;;10.29;100.00;99808.47;5099999;28;20245;-61
2024/03/06 05:48:21;;;;;;;24.58;13.23;;;;;;;10.15;100.00;99812.50;5100170;28;20036;-61
2024/03/06 05:50:47;;;;;;;20.83;13.05;;;;;;;10.01;100.00;99817.53;5100118;28;20039;-61
2024/03/06 05:53:12;;;;;;;23.60;13.35;;;;;;;10.00;100.00;99818.53;5099552;28;20283;-61
2024/03/06 05:55:38;;;;;;;23.13;14.40;;;;;;;10.13;100.00;99821.56;5099636;28;20039;-62
2024/03/06 05:58:05;;;;;;;31.35;14.95;;;;;;;10.22;100.00;99824.13;5099609;28;20032;-64
2024/03/06 06:00:31;;;;;;;21.95;13.90;;;;;;;10.33;100.00;99825.69;5099055;28;20032;-62
2024/03/06 06:02:57;;;;;;;20.85;14.18;;;;;;;10.45;100.00;99834.19;5100512;28;20047;-65
2024/03/06 06:05:24;;;;;;;22.17;14.35;;;;;;;10.50;100.00;99832.72;5097056;28;20032;-65
2024/03/06 06:07:50;;;;;;;23.70;14.07;;;;;;;10.63;100.00;99828.81;5100361;28;20051;-63
2024/03/06 06:10:15;;;;;;;20.60;14.38;;;;;;;10.82;100.00;99836.47;5098233;28;20040;-63
2024/03/06 06:12:41;;;;;;;21.10;13.35;;;;;;;10.95;100.00;99836.00;5100266;28;20039;-62
2024/03/06 06:15:07;;;;;;;19.58;12.15;;;;;;;10.91;100.00;99832.03;5097472;28;20032;-65
2024/03/06 06:17:33;;;;;;;19.67;12.35;;;;;;;10.88;100.00;99831.38;5099768;28;20321;-65
2024/03/06 06:19:59;;;;;;;16.63;11.10;;;;;;;10.92;100.00;99829.22;5098994;28;20032;-63
2024/03/06 06:22:27;;;;;;;18.00;11.88;;;;;;;11.10;100.00;99837.03;5099148;28;20212;-63
2024/03/06 06:24:55;;;;;;;19.30;12.35;;;;;;;11.25;100.00;99823.97;5098955;28;20052;-63
2024/03/06 06:27:20;;;;;;;22.98;13.38;;;;;;;11.47;100.00;99826.84;5098666;28;20034;-63
2024/03/06 06:29:46;;;;;;;32.58;17.83;;;;;;;11.60;100.00;99828.16;5097795;28;20103;-63
2024/03/06 06:32:12;;;;;;;23.73;13.35;;;;;;;11.82;100.00;99832.81;5098409;28;20061;-62
2024/03/06 06:34:37;;;;;;;20.77;12.45;;;;;;;11.86;100.00;99835.97;5097642;28;20040;-63
2024/03/06 06:37:03;;;;;;;19.90;11.27;;;;;;;11.88;100.00;99829.47;5096637;28;20457;-62
2024/03/06 06:39:28;;;;;;;19.23;12.38;;;;;;;12.05;100.00;99838.25;5099982;28;20048;-65
2024/03/06 06:41:54;;;;;;;20.40;12.57;;;;;;;12.28;100.00;99843.66;5097699;28;20044;-64
2024/03/06 06:44:19;;;;;;;15.05;10.88;;;;;;;12.54;100.00;99849.56;5099829;28;20276;-63
2024/03/06 06:46:44;;;;;;;17.20;11.38;;;;;;;12.59;100.00;99849.88;5098148;28;20038;-62
2024/03/06 06:49:10;;;;;;;17.27;10.85;;;;;;;12.53;100.00;99863.03;5099521;28;20113;-63
2024/03/06 06:51:35;;;;;;;19.45;10.82;;;;;;;12.55;100.00;99863.69;5098160;28;20044;-65
2024/03/06 06:54:01;;;;;;;20.45;11.63;;;;;;;12.40;100.00;99868.84;5099141;28;20040;-62
2024/03/06 06:56:27;;;;;;;27.73;13.82;;;;;;;12.57;100.00;99861.69;5099027;28;20218;-63
2024/03/06 06:58:53;;;;;;;18.55;11.35;;;;;;;12.61;100.00;99865.66;5098900;28;20065;-63
2024/03/06 07:01:19;;;;;;;22.20;12.25;;;;;;;12.62;100.00;99867.31;5097982;28;20034;-63
2024/03/06 07:03:45;;;;;;;19.33;11.85;;;;;;;12.63;100.00;99867.13;5097856;28;20040;-63
2024/03/06 07:06:11;;;;;;;17.65;10.95;;;;;;;12.60;100.00;99877.28;5096769;28;20042;-63
2024/03/06 07:08:37;;;;;;;15.75;9.82;;;;;;;12.19;100.00;99871.22;5097889;28;20070;-62
2024/03/06 07:11:02;;;;;;;18.67;10.82;;;;;;;11.94;100.00;99871.28;5098325;28;20296;-63
2024/03/06 07:13:28;;;;;;;20.02;11.18;;;;;;;11.95;100.00;99867.63;5098210;28;20051;-65
2024/03/06 07:15:54;;;;;;;19.10;11.27;;;;;;;11.83;100.00;99868.97;5098986;28;20133;-65
2024/03/06 07:18:19;;;;;;;22.80;12.88;;;;;;;11.90;100.00;99842.59;5097564;28;20169;-63
2024/03/06 07:20:45;;;;;;;20.38;13.52;;;;;;;12.23;100.00;99860.09;5098224;28;20321;-63
2024/03/06 07:23:11;;;;;;;22.33;12.88;;;;;;;12.68;100.00;99851.50;5096504;28;20055;-63
2024/03/06 07:25:36;;;;;;;19.65;12.68;;;;;;;12.86;100.00;99858.41;5098052;28;20035;-63
2024/03/06 07:28:02;;;;;;;20.23;12.40;;;;;;;13.23;100.00;99855.88;5096544;28;20040;-63
2024/03/06 07:30:29;;;;;;;21.48;11.60;;;;;;;13.43;100.00;99850.91;5097082;28;20307;-63
2024/03/06 07:32:55;;;;;;;22.05;11.50;;;;;;;13.43;100.00;99850.91;5097163;28;20048;-65
2024/03/06 07:35:20;;;;;;;14.52;9.98;;;;;;;13.34;100.00;99859.97;5096985;28;20328;-63
2024/03/06 07:37:46;;;;;;;19.85;10.00;;;;;;;13.26;100.00;99863.50;5096256;28;20047;-63
2024/03/06 07:40:12;;;;;;;19.58;10.27;;;;;;;13.56;100.00;99856.50;5096773;28;20038;-63
2024/03/06 07:42:38;;;;;;;18.50;10.75;;;;;;;13.55;100.00;99852.19;5095068;28;20058;-63
2024/03/06 07:45:05;;;;;;;17.33;10.13;;;;;;;13.84;100.00;99862.09;5097641;28;20036;-63
2024/03/06 07:47:30;;;;;;;16.50;10.02;;;;;;;14.10;100.00;99855.53;5096932;28;20105;-63
2024/03/06 07:49:56;;;;;;;16.05;9.60;;;;;;;14.20;100.00;99850.75;5097000;28;20036;-63
2024/03/06 07:52:21;;;;;;;16.05;10.40;;;;;;;14.30;100.00;99857.47;5096970;28;20028;-63
2024/03/06 07:54:47;;;;;;;17.77;10.30;;;;;;;14.17;97.18;99856.44;5095263;28;20035;-63
2024/03/06 07:57:12;;;;;;;14.38;9.00;;;;;;;13.79;99.47;99863.63;5097748;28;20036;-65
2024/03/06 07:59:38;;;;;;;17.85;8.93;;;;;;;13.76;99.25;99856.84;5094640;28;20089;-65
2024/03/06 08:02:04;;;;;;;13.82;9.02;;;;;;;13.73;99.44;99855.38;5096796;28;20032;-62
2024/03/06 08:04:30;;;;;;;15.50;9.63;;;;;;;13.46;100.00;99855.06;5095483;28;20145;-63
2024/03/06 08:06:56;;;;;;;16.70;8.80;;;;;;;13.38;100.00;99854.13;5096889;28;20289;-63
2024/03/06 08:09:21;;;;;;;16.58;8.88;;;;;;;13.79;100.00;99859.13;5095768;28;20048;-62
2024/03/06 08:11:47;;;;;;;14.18;8.60;;;;;;;14.07;98.91;99857.53;5096742;28;20040;-63
2024/03/06 08:14:14;;;;;;;15.00;9.52;;;;;;;14.20;99.78;99850.75;5096658;28;20044;-61
2024/03/06 08:16:40;;;;;;;12.88;8.55;;;;;;;14.50;98.07;99856.94;5096710;28;20047;-61
2024/03/06 08:19:05;;;;;;;16.90;9.85;;;;;;;14.42;96.67;99860.53;5095621;28;20035;-63
2024/03/06 08:21:31;;;;;;;14.23;9.10;;;;;;;14.47;97.47;99863.47;5096298;28;20032;-63
2024/03/06 08:23:56;;;;;;;15.00;9.23;;;;;;;14.63;98.23;99854.47;5094434;28;20604;-61
2024/03/06 08:26:23;;;;;;;16.88;9.00;;;;;;;14.52;97.35;99860.25;5095190;28;20040;-61
2024/03/06 08:28:48;;;;;;;15.07;9.02;;;;;;;14.56;96.55;99848.22;5094616;28;20372;-61
2024/03/06 08:31:14;;;;;;;14.73;8.43;;;;;;;14.57;96.99;99839.22;5095095;28;20032;-61
2024/03/06 08:33:40;;;;;;;14.68;8.57;;;;;;;14.54;95.32;99845.72;5096228;28;20043;-61
2024/03/06 08:36:05;;;;;;;12.05;8.55;;;;;;;14.77;97.19;99844.81;5096103;28;20032;-61
2024/03/06 08:38:31;;;;;;;14.88;8.30;;;;;;;15.01;95.41;99842.63;5094971;28;20085;-61
2024/03/06 08:40:56;;;;;;;13.82;9.73;;;;;;;15.29;94.70;99842.72;5095958;28;20076;-61
2024/03/06 08:43:22;;;;;;;11.43;7.47;;;;;;;15.44;90.27;99848.00;5096353;28;20048;-61
2024/03/06 08:45:47;;;;;;;12.95;7.97;;;;;;;15.61;89.18;99840.63;5096744;28;20352;-64
2024/03/06 08:48:13;;;;;;;13.75;7.63;;;;;;;15.70;87.98;99846.66;5095520;28;20241;-62
2024/03/06 08:50:38;;;;;;;14.05;7.13;;;;;;;15.77;88.38;99840.34;5096726;28;20036;-63
2024/03/06 08:53:04;;;;;;;10.55;6.57;;;;;;;15.72;86.91;99833.94;5096338;28;20089;-65
2024/03/06 08:55:30;;;;;;;11.27;7.57;;;;;;;15.59;86.38;99838.13;5096057;28;20081;-61
2024/03/06 08:57:55;;;;;;;12.43;7.10;;;;;;;15.68;87.42;99841.50;5096627;28;20073;-61
2024/03/06 09:00:21;;;;;;;10.75;6.72;;;;;;;15.76;87.01;99824.53;5094722;28;20032;-63
2024/03/06 09:02:46;;;;;;;9.77;6.80;;;;;;;15.86;85.58;99841.03;5096161;28;20341;-62
2024/03/06 09:05:12;;;;;;;9.75;6.57;;;;;;;16.02;86.64;99840.75;5094492;28;20032;-62
2024/03/06 09:07:40;;;;;;;14.45;8.00;;;;;;;16.13;84.41;99837.53;5096809;28;20276;-61
2024/03/06 09:10:12;;;;;;;12.52;6.82;;;;;;;16.09;82.24;99840.78;5095916;28;20097;-61
2024/03/06 09:12:38;;;;;;;9.77;6.60;;;;;;;16.03;82.77;99839.72;5096670;28;20028;-61
2024/03/06 09:15:07;;;;;;;13.52;7.57;;;;;;;15.92;83.73;99819.72;5094925;28;20067;-61
2024/03/06 09:17:32;;;;;;;11.80;7.57;;;;;;;15.90;84.51;99839.63;5096295;28;20392;-61
2024/03/06 09:19:58;;;;;;;11.18;7.13;;;;;;;15.91;82.41;99833.25;5095434;28;20090;-61
2024/03/06 09:22:24;;;;;;;10.98;7.13;;;;;;;15.85;82.78;99832.19;5097020;28;20036;-61
2024/03/06 09:24:49;;;;;;;10.57;7.10;;;;;;;16.02;83.25;99832.72;5095294;28;20048;-63
2024/03/06 09:27:16;;;;;;;10.57;7.05;;;;;;;16.03;82.52;99831.72;5096463;28;20028;-63
2024/03/06 09:29:43;;;;;;;12.20;8.55;;;;;;;16.09;83.70;99830.94;5096020;28;20129;-61
2024/03/06 09:32:08;;;;;;;11.45;7.22;;;;;;;16.10;81.85;99821.06;5095765;28;20314;-62
2024/03/06 09:34:34;;;;;;;9.38;7.65;;;;;;;16.13;82.88;99818.00;5094569;28;20082;-61
2024/03/06 09:36:59;;;;;;;10.77;6.90;;;;;;;16.14;82.02;99820.47;5095307;28;20028;-61
2024/03/06 09:39:24;;;;;;;10.70;7.40;;;;;;;16.12;77.69;99819.03;5096751;28;20037;-61
2024/03/06 09:41:50;;;;;;;12.63;7.53;;;;;;;16.13;79.55;99820.69;5095669;28;20403;-61
2024/03/06 09:44:17;;;;;;;13.27;7.38;;;;;;;16.06;80.08;99817.13;5096832;28;20377;-61
2024/03/06 09:46:46;;;;;;;11.70;6.97;;;;;;;15.99;78.97;99800.25;5095029;28;20032;-61
2024/03/06 09:49:15;;;;;;;13.32;7.95;;;;;;;16.04;77.74;99811.16;5096460;28;20048;-62
2024/03/06 09:51:45;;;;;;;11.43;7.45;;;;;;;16.03;80.23;99813.00;5094364;28;20088;-62
2024/03/06 09:54:14;;;;;;;12.07;7.50;;;;;;;16.01;78.66;99814.22;5096929;28;20043;-62
2024/03/06 09:56:43;;;;;;;10.70;6.63;;;;;;;16.01;78.05;99812.38;5095591;28;20027;-62
2024/03/06 09:59:08;;;;;;;10.57;6.75;;;;;;;16.11;79.08;99815.53;5096485;28;20039;-64
2024/03/06 10:01:40;;;;;;;14.30;7.35;;;;;;;16.12;78.46;99809.16;5095383;28;20066;-62
2024/03/06 10:04:24;;;;;;;11.77;5.97;;;;;;;16.07;73.59;99813.44;5095411;28;20032;-62
2024/03/06 10:06:54;;;;;;;10.35;6.10;;;;;;;16.01;73.64;99806.22;5094905;28;20126;-62
2024/03/06 10:09:20;;;;;;;9.20;6.05;;;;;;;15.88;75.24;99806.94;5096097;28;20071;-62
2024/03/06 10:11:46;;;;;;;11.15;6.90;;;;;;;16.00;77.94;99799.22;5097472;28;20055;-62
2024/03/06 10:14:12;;;;;;;9.32;6.22;;;;;;;16.11;75.98;99804.00;5099884;28;20036;-61
2024/03/06 10:16:51;;;;;;;11.75;6.95;;;;;;;16.07;78.77;99792.06;5098769;28;20036;-62
2024/03/06 10:19:18;;;;;;;10.93;6.95;;;;;;;15.99;79.12;99786.88;5099234;28;20051;-62
2024/03/06 10:21:48;;;;;;;13.45;7.85;;;;;;;15.93;79.36;99797.34;5096308;28;20032;-61
2024/03/06 10:24:18;;;;;;;10.65;6.75;;;;;;;15.98;78.00;99788.72;5099334;28;20322;-62
2024/03/06 10:26:44;;;;;;;12.40;7.15;;;;;;;16.19;77.76;99788.66;5100112;28;20023;-63
2024/03/06 10:29:10;;;;;;;12.35;6.78;;;;;;;16.33;76.13;99792.22;5099167;28;20349;-63
2024/03/06 10:31:36;;;;;;;12.73;7.15;;;;;;;16.26;75.73;99786.84;5099046;28;20046;-61
2024/03/06 10:34:01;;;;;;;9.30;6.93;;;;;;;16.22;75.52;99777.56;5098127;28;20035;-61
2024/03/06 10:36:27;;;;;;;12.18;7.65;;;;;;;16.14;77.59;99771.56;5099197;28;20039;-62
2024/03/06 10:38:56;;;;;;;12.88;6.82;;;;;;;16.01;76.33;99777.66;5099031;28;20062;-64
2024/03/06 10:41:24;;;;;;;11.82;6.82;;;;;;;15.86;78.24;99767.09;5099092;28;20040;-62
2024/03/06 10:43:54;;;;;;;11.65;6.60;;;;;;;15.95;78.48;99765.91;5099596;28;20353;-62
2024/03/06 10:46:21;;;;;;;12.85;7.65;;;;;;;15.87;78.23;99770.59;5099611;28;20032;-62
2024/03/06 10:48:49;;;;;;;10.13;7.07;;;;;;;16.01;75.10;99766.16;5098708;28;20051;-63
2024/03/06 10:51:17;;;;;;;14.55;7.13;;;;;;;15.90;73.73;99770.19;5099177;28;20028;-62
2024/03/06 10:53:46;;;;;;;14.48;7.20;;;;;;;15.52;76.55;99762.47;5099702;28;20059;-62
2024/03/06 10:56:12;;;;;;;13.65;7.75;;;;;;;15.61;75.76;99755.22;5099020;28;20032;-62
2024/03/06 10:58:39;;;;;;;11.50;7.00;;;;;;;15.52;75.65;99749.13;5099452;28;20056;-62
2024/03/06 11:01:06;;;;;;;12.13;7.20;;;;;;;15.54;76.11;99755.09;5098701;28;20074;-64
2024/03/06 11:03:33;;;;;;;13.52;7.85;;;;;;;15.48;75.71;99745.19;5098833;28;20052;-65
2024/03/06 11:05:58;;;;;;;16.63;8.52;;;;;;;15.22;77.00;99747.66;5099520;28;20079;-62
2024/03/06 11:08:25;;;;;;;13.05;8.10;;;;;;;15.16;75.92;99751.91;5099469;28;20173;-62
2024/03/06 11:10:52;;;;;;;11.80;6.90;;;;;;;15.20;77.60;99737.19;5098782;28;20039;-62